createdAt,value
2022-08-16T00:01:24.458Z,23.77
2022-08-16T00:03:52.479Z,23.71
2022-08-16T00:06:19.168Z,23.68
2022-08-16T00:08:46.148Z,23.65
2022-08-16T00:11:15.984Z,23.62
2022-08-16T00:13:54.000Z,23.60
2022-08-16T00:17:00.776Z,23.54
2022-08-16T00:19:22.482Z,23.49
2022-08-16T00:21:52.040Z,23.45
2022-08-16T00:24:31.110Z,23.41
2022-08-16T00:27:01.049Z,23.38
2022-08-16T00:29:29.675Z,23.35
2022-08-16T00:32:01.073Z,23.31
2022-08-16T00:34:44.029Z,23.29
2022-08-16T00:37:20.790Z,23.26
2022-08-16T00:39:58.020Z,23.24
2022-08-16T00:42:30.370Z,23.24
2022-08-16T00:45:28.440Z,23.23
2022-08-16T00:47:55.933Z,23.22
2022-08-16T00:50:36.057Z,23.18
2022-08-16T00:53:06.161Z,23.18
2022-08-16T00:55:38.100Z,23.21
2022-08-16T00:58:13.236Z,23.23
2022-08-16T01:00:44.468Z,23.23
2022-08-16T01:03:30.280Z,23.23
2022-08-16T01:05:59.042Z,23.19
2022-08-16T01:08:36.031Z,23.18
2022-08-16T01:11:05.361Z,23.14
2022-08-16T01:13:36.593Z,23.15
2022-08-16T01:16:10.246Z,23.17
2022-08-16T01:18:44.345Z,23.18
2022-08-16T01:21:36.161Z,23.17
2022-08-16T01:24:51.526Z,23.15
2022-08-16T01:27:48.560Z,23.13
2022-08-16T01:30:26.068Z,23.11
2022-08-16T01:33:02.765Z,23.10
2022-08-16T01:35:56.158Z,23.09
2022-08-16T01:38:25.690Z,23.08
2022-08-16T01:41:02.034Z,23.08
2022-08-16T01:43:31.275Z,23.06
2022-08-16T01:46:29.943Z,23.06
2022-08-16T01:48:48.813Z,23.06
2022-08-16T01:51:18.686Z,23.05
2022-08-16T01:53:55.196Z,23.05
2022-08-16T01:56:24.608Z,23.08
2022-08-16T01:58:54.997Z,23.06
2022-08-16T02:01:22.552Z,23.05
2022-08-16T02:03:51.908Z,23.02
2022-08-16T02:06:34.640Z,23.03
2022-08-16T02:09:07.277Z,22.99
2022-08-16T02:11:48.101Z,22.94
2022-08-16T02:14:21.496Z,22.91
2022-08-16T02:16:49.431Z,22.93
2022-08-16T02:19:18.614Z,22.95
2022-08-16T02:22:07.795Z,22.91
2022-08-16T02:24:41.269Z,22.95
2022-08-16T02:27:10.848Z,22.96
2022-08-16T02:29:38.348Z,22.94
2022-08-16T02:32:50.819Z,22.90
2022-08-16T02:34:57.278Z,22.90
2022-08-16T02:37:24.139Z,22.90
2022-08-16T02:40:16.307Z,22.88
2022-08-16T02:42:50.054Z,22.88
2022-08-16T02:45:20.191Z,22.89
2022-08-16T02:48:00.577Z,22.88
2022-08-16T02:50:54.088Z,22.86
2022-08-16T02:53:23.664Z,22.86
2022-08-16T02:55:51.358Z,22.85
2022-08-16T02:58:19.877Z,22.83
2022-08-16T03:00:53.919Z,22.80
2022-08-16T03:03:23.131Z,22.80
2022-08-16T03:05:52.509Z,22.80
2022-08-16T03:08:51.730Z,22.81
2022-08-16T03:11:16.977Z,22.82
2022-08-16T03:13:56.438Z,22.83
2022-08-16T03:16:38.789Z,22.85
2022-08-16T03:19:09.613Z,22.85
2022-08-16T03:21:38.606Z,22.87
2022-08-16T03:24:27.687Z,22.87
2022-08-16T03:26:58.160Z,22.89
2022-08-16T03:29:31.555Z,22.88
2022-08-16T03:32:01.389Z,22.86
2022-08-16T03:34:29.640Z,22.88
2022-08-16T03:36:57.525Z,22.90
2022-08-16T03:39:24.757Z,22.90
2022-08-16T03:41:59.972Z,22.87
2022-08-16T03:44:40.657Z,22.84
2022-08-16T03:47:12.372Z,22.83
2022-08-16T03:49:39.473Z,22.87
2022-08-16T03:52:07.269Z,22.88
2022-08-16T03:54:35.904Z,22.90
2022-08-16T03:57:04.941Z,22.91
2022-08-16T03:59:32.463Z,22.93
2022-08-16T04:02:00.939Z,22.95
2022-08-16T04:04:33.463Z,22.95
2022-08-16T04:07:02.780Z,22.98
2022-08-16T04:09:35.570Z,22.96
2022-08-16T04:12:11.051Z,22.95
2022-08-16T04:14:46.903Z,22.99
2022-08-16T04:17:17.136Z,23.00
2022-08-16T04:19:47.442Z,23.05
2022-08-16T04:22:19.612Z,23.08
2022-08-16T04:24:54.256Z,23.11
2022-08-16T04:27:24.399Z,23.15
2022-08-16T04:29:55.366Z,23.23
2022-08-16T04:32:30.036Z,23.25
2022-08-16T04:34:56.746Z,23.32
2022-08-16T04:37:23.370Z,23.35
2022-08-16T04:39:55.297Z,23.35
2022-08-16T04:42:26.308Z,23.41
2022-08-16T04:44:57.701Z,23.45
2022-08-16T04:47:35.545Z,23.58
2022-08-16T04:50:22.515Z,23.64
2022-08-16T04:52:57.935Z,23.74
2022-08-16T04:55:37.819Z,23.83
2022-08-16T04:58:43.959Z,23.90
2022-08-16T05:00:53.592Z,23.88
2022-08-16T05:03:21.452Z,24.02
2022-08-16T05:05:55.908Z,24.09
2022-08-16T05:08:30.799Z,24.15
2022-08-16T05:11:05.519Z,24.26
2022-08-16T05:13:40.069Z,24.36
2022-08-16T05:16:20.226Z,24.43
2022-08-16T05:18:50.358Z,24.50
2022-08-16T05:21:17.100Z,24.58
2022-08-16T05:23:55.848Z,24.69
2022-08-16T05:26:27.869Z,24.60
2022-08-16T05:28:56.060Z,24.75
2022-08-16T05:31:29.191Z,24.85
2022-08-16T05:34:00.846Z,24.98
2022-08-16T05:36:33.921Z,25.04
2022-08-16T05:39:08.856Z,25.23
2022-08-16T05:41:45.373Z,25.33
2022-08-16T05:44:24.051Z,25.39
2022-08-16T05:46:57.044Z,25.52
2022-08-16T05:49:26.186Z,25.64
2022-08-16T05:52:11.456Z,25.70
2022-08-16T05:54:46.666Z,25.78
2022-08-16T05:57:16.812Z,25.91
2022-08-16T05:59:43.739Z,25.98
2022-08-16T06:02:10.377Z,26.04
2022-08-16T06:04:37.965Z,25.93
2022-08-16T06:07:24.262Z,25.87
2022-08-16T06:09:52.739Z,26.07
2022-08-16T06:12:26.804Z,26.30
2022-08-16T06:14:59.073Z,26.32
2022-08-16T06:17:42.857Z,26.29
2022-08-16T06:20:18.410Z,26.72
2022-08-16T06:22:59.047Z,26.45
2022-08-16T06:25:35.817Z,26.59
2022-08-16T06:28:08.777Z,26.48
2022-08-16T06:30:43.535Z,26.47
2022-08-16T06:33:13.034Z,26.50
2022-08-16T06:35:47.251Z,26.61
2022-08-16T06:38:31.922Z,26.53
2022-08-16T06:41:01.104Z,26.75
2022-08-16T06:43:29.177Z,27.03
2022-08-16T06:45:56.201Z,26.89
2022-08-16T06:48:32.445Z,26.92
2022-08-16T06:51:02.250Z,26.57
2022-08-16T06:53:29.713Z,26.45
2022-08-16T06:55:58.725Z,26.76
2022-08-16T06:58:31.635Z,27.35
2022-08-16T07:01:00.119Z,27.84
2022-08-16T07:03:32.591Z,27.44
2022-08-16T07:06:00.089Z,27.75
2022-08-16T07:08:28.033Z,27.20
2022-08-16T07:10:56.034Z,27.38
2022-08-16T07:13:57.958Z,27.52
2022-08-16T07:16:15.312Z,27.74
2022-08-16T07:18:58.105Z,27.52
2022-08-16T07:21:28.208Z,27.66
2022-08-16T07:24:29.549Z,28.20
2022-08-16T07:26:56.933Z,28.10
2022-08-16T07:29:23.759Z,27.98
2022-08-16T07:31:50.473Z,27.50
2022-08-16T07:34:20.869Z,27.99
2022-08-16T07:37:07.632Z,28.40
2022-08-16T07:39:36.079Z,28.29
2022-08-16T07:42:20.068Z,28.71
2022-08-16T07:44:52.668Z,29.08
2022-08-16T07:47:19.549Z,29.63
2022-08-16T07:49:57.926Z,29.56
2022-08-16T07:52:29.762Z,29.27
2022-08-16T07:54:57.706Z,29.57
2022-08-16T07:57:25.288Z,29.32
2022-08-16T07:59:53.533Z,29.73
2022-08-16T08:02:27.419Z,29.42
2022-08-16T08:04:55.934Z,29.73
2022-08-16T08:07:27.490Z,29.98
2022-08-16T08:09:56.187Z,29.99
2022-08-16T08:12:32.383Z,30.30
2022-08-16T08:15:10.330Z,30.24
2022-08-16T08:17:43.123Z,30.10
2022-08-16T08:20:20.781Z,30.84
2022-08-16T08:23:00.983Z,30.41
2022-08-16T08:25:53.488Z,30.19
2022-08-16T08:28:18.476Z,30.22
2022-08-16T08:30:52.272Z,30.57
2022-08-16T08:33:28.608Z,30.92
2022-08-16T08:36:01.101Z,30.85
2022-08-16T08:38:45.580Z,30.36
2022-08-16T08:41:18.343Z,30.29
2022-08-16T08:43:46.247Z,30.44
2022-08-16T08:46:18.195Z,30.50
2022-08-16T08:49:00.150Z,30.74
2022-08-16T08:51:35.492Z,30.80
2022-08-16T08:54:06.821Z,30.56
2022-08-16T08:56:37.826Z,30.47
2022-08-16T08:59:19.851Z,30.71
2022-08-16T09:01:57.280Z,31.23
2022-08-16T09:04:26.925Z,31.80
2022-08-16T09:06:54.695Z,31.83
2022-08-16T09:09:23.172Z,31.78
2022-08-16T09:12:03.914Z,31.83
2022-08-16T09:14:34.640Z,31.78
2022-08-16T09:17:14.060Z,32.02
2022-08-16T09:19:52.640Z,31.76
2022-08-16T09:22:23.151Z,31.81
2022-08-16T09:24:53.474Z,31.68
2022-08-16T09:27:25.321Z,31.77
2022-08-16T09:30:00.281Z,32.05
2022-08-16T09:32:30.574Z,32.37
2022-08-16T09:34:59.548Z,31.89
2022-08-16T09:37:29.206Z,32.03
2022-08-16T09:40:00.952Z,32.30
2022-08-16T09:42:28.941Z,31.85
2022-08-16T09:45:11.068Z,31.74
2022-08-16T09:47:56.591Z,32.40
2022-08-16T09:50:33.221Z,32.50
2022-08-16T09:53:07.579Z,32.37
2022-08-16T09:55:49.004Z,32.29
2022-08-16T09:58:41.933Z,32.33
2022-08-16T10:01:03.359Z,32.82
2022-08-16T10:03:30.519Z,33.01
2022-08-16T10:05:57.447Z,32.96
2022-08-16T10:08:27.057Z,33.17
2022-08-16T10:11:12.685Z,32.53
2022-08-16T10:13:41.619Z,32.88
2022-08-16T10:16:09.224Z,32.79
2022-08-16T10:19:00.247Z,33.15
2022-08-16T10:21:24.044Z,33.07
2022-08-16T10:23:54.881Z,33.28
2022-08-16T10:27:18.381Z,33.32
2022-08-16T10:29:11.944Z,33.63
2022-08-16T10:31:53.524Z,33.49
2022-08-16T10:34:31.241Z,33.35
2022-08-16T10:37:02.101Z,33.27
2022-08-16T10:39:40.506Z,33.52
2022-08-16T10:42:09.932Z,33.35
2022-08-16T10:44:36.859Z,34.34
2022-08-16T10:47:04.227Z,33.75
2022-08-16T10:49:32.368Z,33.39
2022-08-16T10:52:01.131Z,33.64
2022-08-16T10:54:31.128Z,33.61
2022-08-16T10:57:04.151Z,34.02
2022-08-16T10:59:47.031Z,33.43
2022-08-16T11:03:00.805Z,33.44
2022-08-16T11:05:13.953Z,33.39
2022-08-16T11:07:51.497Z,33.31
2022-08-16T11:19:06.140Z,33.43
2022-08-16T11:22:23.146Z,33.26
2022-08-16T11:24:41.558Z,33.31
2022-08-16T11:27:24.062Z,33.36
2022-08-16T11:29:59.332Z,33.15
2022-08-16T11:32:32.397Z,33.19
2022-08-16T11:35:13.982Z,33.23
2022-08-16T11:40:44.715Z,33.46
2022-08-16T11:43:16.477Z,33.89
2022-08-16T11:45:44.262Z,34.32
2022-08-16T11:48:27.015Z,34.92
2022-08-16T11:50:54.890Z,34.38
2022-08-16T11:53:22.096Z,33.79
2022-08-16T11:55:50.650Z,34.11
2022-08-16T11:58:26.122Z,33.55
2022-08-16T12:00:57.571Z,33.50
2022-08-16T12:03:31.625Z,33.28
2022-08-16T12:06:10.842Z,33.07
2022-08-16T12:08:40.161Z,32.69
2022-08-16T12:11:08.213Z,33.18
2022-08-16T12:13:36.375Z,33.43
2022-08-16T12:16:04.586Z,33.30
2022-08-16T12:18:31.665Z,33.24
2022-08-16T12:20:58.468Z,33.40
2022-08-16T12:23:26.954Z,33.88
2022-08-16T12:25:53.900Z,34.11
2022-08-16T12:28:36.659Z,34.63
2022-08-16T12:31:07.713Z,34.08
2022-08-16T12:33:42.800Z,33.67
2022-08-16T12:36:13.216Z,34.34
2022-08-16T12:38:48.105Z,33.96
2022-08-16T12:41:24.716Z,33.92
2022-08-16T12:43:52.672Z,33.67
2022-08-16T12:46:25.207Z,34.52
2022-08-16T12:48:58.148Z,34.83
2022-08-16T12:51:58.695Z,33.65
2022-08-16T12:54:23.599Z,33.93
2022-08-16T12:56:50.768Z,33.98
2022-08-16T12:59:20.329Z,33.88
2022-08-16T13:01:47.828Z,32.36
2022-08-16T13:04:20.500Z,32.43
2022-08-16T13:06:50.178Z,32.45
2022-08-16T13:09:26.158Z,32.92
2022-08-16T13:12:16.063Z,32.73
2022-08-16T13:14:44.152Z,32.78
2022-08-16T13:17:18.775Z,33.13
2022-08-16T13:22:36.612Z,33.42
2022-08-16T13:25:06.475Z,33.20
2022-08-16T13:27:59.108Z,33.90
2022-08-16T13:30:36.079Z,33.57
2022-08-16T13:33:10.409Z,33.52
2022-08-16T13:35:38.452Z,33.77
2022-08-16T13:38:10.362Z,33.74
2022-08-16T13:40:48.785Z,33.64
2022-08-16T13:43:18.154Z,33.42
2022-08-16T13:45:45.232Z,33.65
2022-08-16T13:48:21.805Z,33.47
2022-08-16T13:50:52.971Z,33.94
2022-08-16T13:53:24.401Z,33.91
2022-08-16T13:55:58.524Z,34.43
2022-08-16T13:58:36.384Z,34.44
2022-08-16T14:01:09.961Z,35.37
2022-08-16T14:03:37.490Z,34.71
2022-08-16T14:06:04.199Z,34.26
2022-08-16T14:08:30.870Z,34.27
2022-08-16T14:10:57.630Z,35.30
2022-08-16T14:13:24.436Z,35.13
2022-08-16T14:15:51.669Z,35.45
2022-08-16T14:18:20.379Z,34.75
2022-08-16T14:20:48.519Z,34.75
2022-08-16T14:23:15.910Z,34.16
2022-08-16T14:25:42.858Z,34.63
2022-08-16T14:28:20.488Z,34.11
2022-08-16T14:30:50.495Z,34.46
2022-08-16T14:33:18.812Z,34.02
2022-08-16T14:35:49.196Z,33.99
2022-08-16T14:38:19.235Z,33.75
2022-08-16T14:40:55.452Z,33.79
2022-08-16T14:43:24.891Z,33.76
2022-08-16T14:45:54.836Z,33.59
2022-08-16T14:48:25.836Z,33.72
2022-08-16T14:50:54.774Z,33.50
2022-08-16T14:53:23.798Z,33.42
2022-08-16T14:55:50.792Z,33.59
2022-08-16T14:58:19.652Z,33.48
2022-08-16T15:00:47.819Z,33.27
2022-08-16T15:03:19.320Z,33.41
2022-08-16T15:05:48.483Z,33.61
2022-08-16T15:08:20.298Z,33.88
2022-08-16T15:10:47.589Z,33.63
2022-08-16T15:13:14.910Z,33.66
2022-08-16T15:15:43.410Z,33.67
2022-08-16T15:18:12.252Z,34.29
2022-08-16T15:20:41.185Z,33.78
2022-08-16T15:23:09.229Z,33.88
2022-08-16T15:25:57.680Z,34.75
2022-08-16T15:28:32.280Z,34.67
2022-08-16T15:31:03.609Z,35.14
2022-08-16T15:33:32.982Z,35.41
2022-08-16T15:36:00.555Z,35.39
2022-08-16T15:38:58.146Z,35.33
2022-08-16T15:41:43.688Z,35.41
2022-08-16T15:44:22.410Z,35.34
2022-08-16T15:46:56.941Z,35.45
2022-08-16T15:49:37.434Z,35.63
2022-08-16T15:52:18.148Z,34.89
2022-08-16T15:54:53.486Z,34.60
2022-08-16T15:57:27.024Z,35.00
2022-08-16T15:59:56.045Z,35.43
2022-08-16T16:02:30.828Z,34.85
2022-08-16T16:05:00.924Z,35.44
2022-08-16T16:07:29.936Z,35.28
2022-08-16T16:09:58.764Z,34.47
2022-08-16T16:12:56.310Z,33.70
2022-08-16T16:15:16.754Z,33.82
2022-08-16T16:17:44.038Z,33.46
2022-08-16T16:20:18.719Z,33.26
2022-08-16T16:22:46.320Z,33.09
2022-08-16T16:25:15.971Z,32.65
2022-08-16T16:27:44.007Z,32.61
2022-08-16T16:30:33.513Z,32.67
2022-08-16T16:33:01.047Z,32.99
2022-08-16T16:35:30.731Z,32.57
2022-08-16T16:38:00.190Z,32.44
2022-08-16T16:40:32.138Z,32.79
2022-08-16T16:43:00.352Z,32.74
2022-08-16T16:45:33.515Z,32.79
2022-08-16T16:48:12.039Z,32.82
2022-08-16T16:50:45.278Z,32.67
2022-08-16T16:53:17.134Z,32.71
2022-08-16T16:55:52.261Z,32.60
2022-08-16T16:58:43.491Z,32.55
2022-08-16T17:01:20.945Z,32.73
2022-08-16T17:04:19.359Z,32.94
2022-08-16T17:06:53.404Z,32.94
2022-08-16T17:09:23.769Z,33.07
2022-08-16T17:11:55.616Z,32.55
2022-08-16T17:14:33.234Z,32.18
2022-08-16T17:17:10.041Z,32.02
2022-08-16T17:19:41.021Z,31.83
2022-08-16T17:22:32.526Z,31.70
2022-08-16T17:25:00.350Z,31.42
2022-08-16T17:27:33.761Z,30.98
2022-08-16T17:30:15.995Z,30.82
2022-08-16T17:32:50.702Z,30.60
2022-08-16T17:35:36.600Z,30.41
2022-08-16T17:38:07.504Z,30.21
2022-08-16T17:40:57.719Z,30.02
2022-08-16T17:43:32.349Z,29.96
2022-08-16T17:45:59.909Z,29.81
2022-08-16T17:48:27.455Z,29.69
2022-08-16T17:50:54.533Z,29.63
2022-08-16T17:53:22.287Z,29.56
2022-08-16T17:55:50.478Z,29.45
2022-08-16T17:58:22.242Z,29.37
2022-08-16T18:00:53.068Z,29.29
2022-08-16T18:04:08.957Z,29.16
2022-08-16T18:06:15.798Z,28.97
2022-08-16T18:08:42.737Z,28.91
2022-08-16T18:11:10.396Z,28.78
2022-08-16T18:13:42.909Z,28.69
2022-08-16T18:16:10.380Z,28.64
2022-08-16T18:18:37.282Z,28.55
2022-08-16T18:21:22.925Z,28.48
2022-08-16T18:23:49.527Z,28.43
2022-08-16T18:26:16.140Z,28.36
2022-08-16T18:28:42.906Z,28.31
2022-08-16T18:31:09.650Z,28.28
2022-08-16T18:33:43.352Z,28.21
2022-08-16T18:36:20.535Z,28.21
2022-08-16T18:38:48.780Z,28.16
2022-08-16T18:41:15.964Z,28.10
2022-08-16T18:44:23.615Z,28.09
2022-08-16T18:46:29.506Z,28.06
2022-08-16T18:48:56.130Z,28.00
2022-08-16T18:51:25.276Z,27.94
2022-08-16T18:53:52.444Z,27.90
2022-08-16T18:56:19.678Z,27.80
2022-08-16T18:58:46.410Z,27.76
2022-08-16T19:01:13.275Z,27.66
2022-08-16T19:03:40.009Z,27.61
2022-08-16T19:06:11.964Z,27.55
2022-08-16T19:08:42.518Z,27.52
2022-08-16T19:11:20.000Z,27.47
2022-08-16T19:13:46.725Z,27.40
2022-08-16T19:16:14.556Z,27.34
2022-08-16T19:18:41.475Z,27.30
2022-08-16T19:21:14.524Z,27.21
2022-08-16T19:23:42.657Z,27.17
2022-08-16T19:26:23.402Z,27.14
2022-08-16T19:28:58.676Z,27.08
2022-08-16T19:31:32.750Z,27.02
2022-08-16T19:34:00.784Z,26.91
2022-08-16T19:36:35.171Z,26.81
2022-08-16T19:39:08.839Z,26.81
2022-08-16T19:41:39.083Z,26.77
2022-08-16T19:44:06.738Z,26.69
2022-08-16T19:46:34.094Z,26.55
2022-08-16T19:49:00.842Z,26.53
2022-08-16T19:51:28.272Z,26.46
2022-08-16T19:53:55.016Z,26.44
2022-08-16T19:56:23.921Z,26.36
2022-08-16T19:59:17.461Z,26.32
2022-08-16T20:01:42.048Z,26.23
2022-08-16T20:04:12.569Z,26.19
2022-08-16T20:06:39.726Z,26.12
2022-08-16T20:09:06.911Z,26.11
2022-08-16T20:11:34.857Z,26.01
2022-08-16T20:14:02.353Z,25.96
2022-08-16T20:16:29.533Z,25.88
2022-08-16T20:18:59.545Z,25.81
2022-08-16T20:21:26.290Z,25.77
2022-08-16T20:23:58.305Z,25.72
2022-08-16T20:26:36.841Z,25.72
2022-08-16T20:29:03.496Z,25.64
2022-08-16T20:31:30.217Z,25.61
2022-08-16T20:33:56.928Z,25.52
2022-08-16T20:36:24.539Z,25.45
2022-08-16T20:38:51.935Z,25.39
2022-08-16T20:41:19.116Z,25.35
2022-08-16T20:43:47.604Z,25.32
2022-08-16T20:46:14.677Z,25.32
2022-08-16T20:48:41.959Z,25.28
2022-08-16T20:51:10.752Z,25.25
2022-08-16T20:53:42.391Z,25.21
2022-08-16T20:56:10.472Z,25.20
2022-08-16T20:58:37.652Z,25.14
2022-08-16T21:01:05.506Z,25.14
2022-08-16T21:03:32.432Z,25.11
2022-08-16T21:06:02.192Z,25.07
2022-08-16T21:08:52.546Z,25.01
2022-08-16T21:11:16.399Z,24.98
2022-08-16T21:13:43.241Z,24.87
2022-08-16T21:16:09.984Z,24.87
2022-08-16T21:18:36.577Z,24.82
2022-08-16T21:21:03.351Z,24.82
2022-08-16T21:23:30.925Z,24.76
2022-08-16T21:25:59.706Z,24.75
2022-08-16T21:28:38.796Z,24.75
2022-08-16T21:31:10.875Z,24.72
2022-08-16T21:33:37.709Z,24.70
2022-08-16T21:36:04.575Z,24.57
2022-08-16T21:38:31.523Z,24.54
2022-08-16T21:41:00.209Z,24.51
2022-08-16T21:43:31.890Z,24.48
2022-08-16T21:46:00.151Z,24.45
2022-08-16T21:48:34.916Z,24.43
2022-08-16T21:51:08.377Z,24.41
2022-08-16T21:53:35.901Z,24.39
2022-08-16T21:56:03.942Z,24.39
2022-08-16T21:58:30.910Z,24.35
2022-08-16T22:01:07.229Z,24.33
2022-08-16T22:03:33.936Z,24.26
2022-08-16T22:06:13.225Z,24.25
2022-08-16T22:08:50.376Z,24.21
2022-08-16T22:11:22.926Z,24.16
2022-08-16T22:13:57.502Z,24.14
2022-08-16T22:16:29.829Z,24.11
2022-08-16T22:18:56.488Z,24.09
2022-08-16T22:21:23.438Z,24.08
2022-08-16T22:23:56.605Z,24.05
2022-08-16T22:26:33.813Z,24.00
2022-08-16T22:29:10.755Z,23.98
2022-08-16T22:31:39.548Z,23.94
2022-08-16T22:34:06.674Z,23.92
2022-08-16T22:36:34.317Z,23.84
2022-08-16T22:39:03.715Z,23.85
2022-08-16T22:41:32.762Z,23.80
2022-08-16T22:44:01.381Z,23.78
2022-08-16T22:46:28.500Z,23.73
2022-08-16T22:48:55.151Z,23.75
2022-08-16T22:51:23.909Z,23.75
2022-08-16T22:53:52.778Z,23.73
2022-08-16T22:56:20.924Z,23.69
2022-08-16T22:58:47.963Z,23.63
2022-08-16T23:01:17.183Z,23.63
2022-08-16T23:03:44.363Z,23.60
2022-08-16T23:06:12.510Z,23.60
2022-08-16T23:08:41.403Z,23.55
2022-08-16T23:11:10.839Z,23.52
2022-08-16T23:13:52.718Z,23.52
2022-08-16T23:16:33.796Z,23.51
2022-08-16T23:19:07.176Z,23.49
2022-08-16T23:21:37.136Z,23.47
2022-08-16T23:24:05.771Z,23.44
2022-08-16T23:26:36.376Z,23.39
2022-08-16T23:29:22.119Z,23.36
2022-08-16T23:31:53.878Z,23.38
2022-08-16T23:34:21.802Z,23.38
2022-08-16T23:36:48.622Z,23.37
2022-08-16T23:39:15.312Z,23.37
2022-08-16T23:41:42.146Z,23.35
2022-08-16T23:44:56.409Z,23.34
2022-08-16T23:46:55.788Z,23.35
2022-08-16T23:49:58.570Z,23.33
2022-08-16T23:52:09.929Z,23.33
2022-08-16T23:54:36.733Z,23.33
2022-08-16T23:57:03.896Z,23.31
2022-08-16T23:59:38.049Z,23.28
